createdAt,value
2022-08-24T00:00:07.627Z,21.07
2022-08-24T00:01:07.836Z,21.06
2022-08-24T00:02:06.323Z,21.05
2022-08-24T00:03:10.486Z,21.03
2022-08-24T00:04:06.825Z,21.03
2022-08-24T00:05:09.573Z,21.03
2022-08-24T00:06:09.321Z,21.03
2022-08-24T00:07:15.884Z,21.00
2022-08-24T00:08:09.957Z,21.00
2022-08-24T00:09:08.229Z,21.02
2022-08-24T00:10:09.406Z,21.02
2022-08-24T00:11:12.055Z,20.99
2022-08-24T00:12:09.212Z,20.99
2022-08-24T00:13:12.546Z,20.99
2022-08-24T00:14:09.858Z,20.97
2022-08-24T00:15:12.052Z,20.96
2022-08-24T00:16:10.460Z,20.95
2022-08-24T00:17:12.612Z,20.93
2022-08-24T00:18:11.806Z,20.95
2022-08-24T00:19:11.315Z,20.93
2022-08-24T00:20:11.628Z,20.93
2022-08-24T00:21:11.958Z,20.93
2022-08-24T00:22:14.113Z,20.92
2022-08-24T00:23:13.380Z,20.92
2022-08-24T00:24:12.738Z,20.88
2022-08-24T00:25:13.054Z,20.85
2022-08-24T00:26:13.345Z,20.84
2022-08-24T00:27:15.525Z,20.84
2022-08-24T00:28:15.393Z,20.82
2022-08-24T00:29:16.115Z,20.80
2022-08-24T00:30:14.598Z,20.80
2022-08-24T00:31:14.676Z,20.77
2022-08-24T00:32:14.937Z,20.72
2022-08-24T00:33:16.261Z,20.72
2022-08-24T00:34:17.446Z,20.70
2022-08-24T00:35:15.839Z,20.69
2022-08-24T00:36:18.019Z,20.69
2022-08-24T00:37:16.400Z,20.67
2022-08-24T00:38:19.643Z,20.66
2022-08-24T00:39:17.068Z,20.63
2022-08-24T00:40:17.396Z,20.62
2022-08-24T00:41:17.682Z,20.60
2022-08-24T00:42:19.887Z,20.62
2022-08-24T00:43:20.160Z,20.60
2022-08-24T00:44:18.549Z,20.59
2022-08-24T00:45:18.863Z,20.58
2022-08-24T00:46:19.186Z,20.59
2022-08-24T00:47:21.368Z,20.56
2022-08-24T00:48:22.756Z,20.56
2022-08-24T00:49:20.054Z,20.56
2022-08-24T00:50:20.331Z,20.55
2022-08-24T00:51:22.517Z,20.52
2022-08-24T00:52:22.698Z,20.51
2022-08-24T00:53:24.076Z,20.50
2022-08-24T00:54:23.080Z,20.48
2022-08-24T00:55:24.727Z,20.48
2022-08-24T00:56:22.035Z,20.47
2022-08-24T00:57:25.638Z,20.47
2022-08-24T00:58:25.639Z,20.47
2022-08-24T00:59:24.007Z,20.44
2022-08-24T01:00:25.213Z,20.43
2022-08-24T01:01:24.353Z,20.43
2022-08-24T01:02:24.800Z,20.44
2022-08-24T01:03:27.890Z,20.44
2022-08-24T01:04:25.321Z,20.41
2022-08-24T01:05:26.536Z,20.41
2022-08-24T01:06:26.730Z,20.40
2022-08-24T01:07:26.053Z,20.40
2022-08-24T01:08:29.273Z,20.39
2022-08-24T01:09:25.697Z,20.36
2022-08-24T01:10:29.336Z,20.34
2022-08-24T01:11:30.879Z,20.31
2022-08-24T01:12:28.386Z,20.31
2022-08-24T01:13:30.723Z,20.29
2022-08-24T01:14:27.937Z,20.28
2022-08-24T01:15:28.367Z,20.28
2022-08-24T01:16:29.086Z,20.29
2022-08-24T01:17:28.944Z,20.28
2022-08-24T01:18:30.108Z,20.28
2022-08-24T01:19:30.290Z,20.25
2022-08-24T01:20:29.672Z,20.21
2022-08-24T01:21:30.515Z,20.21
2022-08-24T01:22:30.242Z,20.16
2022-08-24T01:23:36.453Z,20.14
2022-08-24T01:24:31.793Z,20.11
2022-08-24T01:25:30.190Z,20.11
2022-08-24T01:26:30.720Z,20.11
2022-08-24T01:27:30.750Z,20.10
2022-08-24T01:28:31.048Z,20.09
2022-08-24T01:29:33.252Z,20.09
2022-08-24T01:30:36.732Z,20.09
2022-08-24T01:31:33.011Z,20.09
2022-08-24T01:32:34.193Z,20.06
2022-08-24T01:33:34.318Z,20.06
2022-08-24T01:34:32.852Z,20.07
2022-08-24T01:35:35.046Z,20.07
2022-08-24T01:36:35.240Z,20.04
2022-08-24T01:37:35.438Z,20.06
2022-08-24T01:38:37.611Z,20.04
2022-08-24T01:39:34.407Z,20.02
2022-08-24T01:40:35.608Z,19.99
2022-08-24T01:41:34.969Z,19.96
2022-08-24T01:42:37.150Z,19.95
2022-08-24T01:43:37.515Z,19.96
2022-08-24T01:44:37.536Z,19.95
2022-08-24T01:45:37.801Z,19.94
2022-08-24T01:46:38.482Z,19.94
2022-08-24T01:47:38.619Z,19.92
2022-08-24T01:48:38.805Z,19.91
2022-08-24T01:49:39.010Z,19.91
2022-08-24T01:50:39.212Z,19.91
2022-08-24T01:51:37.922Z,19.92
2022-08-24T01:53:03.417Z,19.91
2022-08-24T01:53:41.433Z,19.92
2022-08-24T01:54:43.515Z,19.91
2022-08-24T01:55:39.072Z,19.91
2022-08-24T01:56:41.259Z,19.92
2022-08-24T01:57:43.423Z,19.92
2022-08-24T01:58:39.971Z,19.94
2022-08-24T01:59:42.149Z,19.95
2022-08-24T02:00:40.540Z,19.96
2022-08-24T02:01:40.915Z,19.96
2022-08-24T02:02:45.053Z,19.94
2022-08-24T02:03:41.343Z,19.91
2022-08-24T02:04:44.311Z,19.92
2022-08-24T02:05:41.913Z,19.92
2022-08-24T02:06:42.223Z,19.94
2022-08-24T02:07:46.417Z,19.91
2022-08-24T02:08:42.840Z,19.89
2022-08-24T02:09:45.026Z,19.86
2022-08-24T02:10:56.457Z,19.88
2022-08-24T02:11:44.737Z,19.88
2022-08-24T02:12:44.897Z,19.89
2022-08-24T02:13:44.276Z,19.88
2022-08-24T02:14:44.588Z,19.88
2022-08-24T02:15:48.088Z,19.88
2022-08-24T02:16:45.152Z,19.88
2022-08-24T02:17:46.465Z,19.86
2022-08-24T02:18:45.719Z,19.84
2022-08-24T02:19:46.037Z,19.82
2022-08-24T02:20:48.226Z,19.81
2022-08-24T02:21:46.618Z,19.81
2022-08-24T02:22:47.776Z,19.81
2022-08-24T02:23:49.160Z,19.77
2022-08-24T02:24:47.461Z,19.76
2022-08-24T02:25:49.653Z,19.76
2022-08-24T02:26:48.025Z,19.79
2022-08-24T02:27:49.830Z,19.79
2022-08-24T02:28:50.556Z,19.79
2022-08-24T02:29:48.820Z,19.79
2022-08-24T02:30:51.052Z,19.79
2022-08-24T02:31:49.422Z,19.79
2022-08-24T02:32:50.657Z,19.76
2022-08-24T02:33:50.039Z,19.74
2022-08-24T02:34:50.347Z,19.76
2022-08-24T02:35:52.553Z,19.77
2022-08-24T02:36:50.930Z,19.74
2022-08-24T02:37:52.727Z,19.76
2022-08-24T02:38:51.477Z,19.73
2022-08-24T02:39:51.783Z,19.73
2022-08-24T02:40:53.893Z,19.73
2022-08-24T02:41:52.425Z,19.71
2022-08-24T02:42:53.536Z,19.73
2022-08-24T02:43:53.043Z,19.71
2022-08-24T02:44:53.748Z,19.71
2022-08-24T02:45:55.545Z,19.70
2022-08-24T02:46:53.933Z,19.73
2022-08-24T02:47:55.104Z,19.71
2022-08-24T02:49:08.336Z,19.70
2022-08-24T02:49:55.815Z,19.69
2022-08-24T02:50:56.983Z,19.67
2022-08-24T02:51:55.374Z,19.67
2022-08-24T02:52:56.732Z,19.66
2022-08-24T02:53:59.347Z,19.64
2022-08-24T02:54:59.528Z,19.64
2022-08-24T02:55:57.409Z,19.63
2022-08-24T02:56:57.823Z,19.63
2022-08-24T02:57:58.688Z,19.63
2022-08-24T02:58:59.453Z,19.63
2022-08-24T02:59:59.612Z,19.66
2022-08-24T03:00:59.013Z,19.66
2022-08-24T03:01:59.196Z,19.66
2022-08-24T03:03:00.095Z,19.67
2022-08-24T03:04:00.738Z,19.67
2022-08-24T03:05:00.904Z,19.67
2022-08-24T03:05:59.411Z,19.69
2022-08-24T03:06:59.711Z,19.67
2022-08-24T03:08:00.863Z,19.64
2022-08-24T03:09:02.214Z,19.64
2022-08-24T03:10:00.595Z,19.66
2022-08-24T03:11:01.859Z,19.63
2022-08-24T03:12:02.015Z,19.62
2022-08-24T03:13:04.513Z,19.62
2022-08-24T03:14:02.863Z,19.63
2022-08-24T03:15:04.044Z,19.63
2022-08-24T03:16:03.478Z,19.64
2022-08-24T03:17:03.585Z,19.63
2022-08-24T03:18:06.445Z,19.63
2022-08-24T03:19:03.230Z,19.59
2022-08-24T03:20:06.386Z,19.59
2022-08-24T03:21:03.794Z,19.56
2022-08-24T03:22:04.994Z,19.54
2022-08-24T03:23:05.339Z,19.52
2022-08-24T03:24:05.183Z,19.52
2022-08-24T03:25:06.857Z,19.51
2022-08-24T03:26:07.045Z,19.48
2022-08-24T03:27:07.241Z,19.47
2022-08-24T03:28:10.214Z,19.44
2022-08-24T03:29:08.154Z,19.41
2022-08-24T03:30:08.368Z,19.41
2022-08-24T03:31:08.603Z,19.39
2022-08-24T03:32:08.768Z,19.34
2022-08-24T03:33:08.198Z,19.36
2022-08-24T03:34:08.551Z,19.34
2022-08-24T03:35:09.733Z,19.31
2022-08-24T03:36:13.552Z,19.29
2022-08-24T03:37:09.432Z,19.27
2022-08-24T03:38:09.503Z,19.26
2022-08-24T03:39:09.013Z,19.24
2022-08-24T03:40:22.750Z,19.21
2022-08-24T03:41:12.398Z,19.21
2022-08-24T03:42:09.939Z,19.21
2022-08-24T03:43:14.099Z,19.19
2022-08-24T03:44:10.559Z,19.18
2022-08-24T03:45:12.780Z,19.16
2022-08-24T03:46:13.110Z,19.15
2022-08-24T03:47:11.454Z,19.14
2022-08-24T03:48:15.640Z,19.14
2022-08-24T03:49:12.089Z,19.12
2022-08-24T03:50:14.251Z,19.14
2022-08-24T03:51:12.648Z,19.14
2022-08-24T03:52:14.908Z,19.14
2022-08-24T03:53:16.091Z,19.09
2022-08-24T03:54:15.308Z,19.09
2022-08-24T03:55:16.932Z,19.09
2022-08-24T03:56:14.235Z,19.08
2022-08-24T03:57:14.557Z,19.11
2022-08-24T03:58:18.266Z,19.08
2022-08-24T03:59:19.751Z,19.07
2022-08-24T04:00:15.411Z,19.04
2022-08-24T04:01:15.763Z,19.04
2022-08-24T04:02:16.095Z,19.00
2022-08-24T04:03:19.394Z,18.99
2022-08-24T04:04:16.693Z,18.98
2022-08-24T04:05:18.077Z,18.98
2022-08-24T04:06:17.353Z,18.99
2022-08-24T04:07:17.696Z,18.99
2022-08-24T04:08:18.913Z,18.99
2022-08-24T04:09:18.323Z,18.98
2022-08-24T04:10:21.113Z,18.95
2022-08-24T04:11:18.902Z,18.93
2022-08-24T04:12:19.267Z,18.92
2022-08-24T04:13:22.543Z,18.90
2022-08-24T04:14:27.364Z,18.89
2022-08-24T04:15:21.060Z,18.88
2022-08-24T04:16:20.383Z,18.86
2022-08-24T04:17:22.523Z,18.86
2022-08-24T04:18:26.905Z,18.88
2022-08-24T04:19:21.092Z,18.88
2022-08-24T04:20:21.436Z,18.86
2022-08-24T04:21:23.636Z,18.84
2022-08-24T04:22:23.848Z,18.81
2022-08-24T04:23:39.355Z,18.83
2022-08-24T04:24:23.633Z,18.81
2022-08-24T04:25:25.040Z,18.84
2022-08-24T04:26:44.387Z,18.83
2022-08-24T04:27:24.545Z,18.83
2022-08-24T04:28:26.729Z,18.81
2022-08-24T04:29:24.156Z,18.78
2022-08-24T04:30:24.495Z,18.78
2022-08-24T04:31:28.509Z,18.78
2022-08-24T04:32:25.092Z,18.78
2022-08-24T04:33:29.242Z,18.77
2022-08-24T04:34:25.579Z,18.77
2022-08-24T04:35:25.809Z,18.78
2022-08-24T04:36:28.032Z,18.80
2022-08-24T04:37:29.125Z,18.80
2022-08-24T04:38:28.576Z,18.80
2022-08-24T04:39:28.723Z,18.78
2022-08-24T04:40:27.162Z,18.78
2022-08-24T04:41:31.437Z,18.77
2022-08-24T04:42:29.489Z,18.77
2022-08-24T04:43:28.865Z,18.77
2022-08-24T04:44:30.236Z,18.75
2022-08-24T04:45:30.434Z,18.77
2022-08-24T04:46:30.575Z,18.77
2022-08-24T04:47:30.018Z,18.77
2022-08-24T04:48:31.363Z,18.75
2022-08-24T04:49:29.785Z,18.77
2022-08-24T04:50:31.961Z,18.77
2022-08-24T04:51:36.190Z,18.75
2022-08-24T04:52:30.601Z,18.75
2022-08-24T04:53:34.287Z,18.75
2022-08-24T04:54:31.100Z,18.75
2022-08-24T04:55:34.746Z,18.74
2022-08-24T04:56:33.516Z,18.73
2022-08-24T04:57:32.641Z,18.74
2022-08-24T04:58:32.058Z,18.78
2022-08-24T04:59:33.220Z,18.84
2022-08-24T05:00:34.620Z,18.83
2022-08-24T05:01:34.389Z,18.78
2022-08-24T05:02:39.091Z,18.75
2022-08-24T05:03:34.384Z,18.77
2022-08-24T05:04:34.530Z,18.77
2022-08-24T05:05:35.895Z,18.78
2022-08-24T05:06:34.194Z,18.83
2022-08-24T05:07:34.425Z,18.80
2022-08-24T05:08:37.589Z,18.74
2022-08-24T05:09:34.912Z,18.70
2022-08-24T05:10:38.531Z,18.68
2022-08-24T05:11:36.424Z,18.65
2022-08-24T05:12:37.658Z,18.63
2022-08-24T05:13:37.000Z,18.63
2022-08-24T05:14:37.155Z,18.63
2022-08-24T05:15:37.574Z,18.62
2022-08-24T05:16:37.796Z,18.62
2022-08-24T05:17:39.116Z,18.63
2022-08-24T05:18:37.547Z,18.70
2022-08-24T05:19:37.804Z,18.73
2022-08-24T05:20:38.011Z,18.75
2022-08-24T05:21:39.560Z,18.80
2022-08-24T05:22:39.485Z,18.75
2022-08-24T05:23:43.881Z,18.78
2022-08-24T05:24:39.000Z,18.74
2022-08-24T05:25:41.220Z,18.71
2022-08-24T05:26:39.535Z,18.70
2022-08-24T05:27:41.713Z,18.68
2022-08-24T05:28:43.913Z,18.66
2022-08-24T05:29:40.392Z,18.65
2022-08-24T05:30:43.030Z,18.66
2022-08-24T05:31:42.757Z,18.71
2022-08-24T05:32:41.280Z,18.90
2022-08-24T05:33:43.524Z,19.14
2022-08-24T05:34:43.671Z,19.31
2022-08-24T05:35:44.656Z,19.41
2022-08-24T05:36:44.022Z,19.55
2022-08-24T05:37:42.725Z,19.58
2022-08-24T05:38:46.366Z,19.62
2022-08-24T05:39:45.203Z,19.62
2022-08-24T05:40:45.311Z,19.66
2022-08-24T05:41:45.487Z,19.56
2022-08-24T05:42:45.077Z,19.41
2022-08-24T05:43:47.441Z,19.47
2022-08-24T05:44:46.466Z,19.52
2022-08-24T05:45:44.899Z,19.59
2022-08-24T05:46:47.192Z,19.45
2022-08-24T05:47:45.357Z,19.33
2022-08-24T05:48:53.100Z,19.41
2022-08-24T05:49:46.862Z,19.47
2022-08-24T05:50:46.143Z,19.64
2022-08-24T05:51:48.312Z,19.84
2022-08-24T05:52:48.498Z,20.02
2022-08-24T05:53:47.763Z,20.07
2022-08-24T05:54:49.156Z,20.09
2022-08-24T05:55:49.345Z,20.19
2022-08-24T05:56:47.764Z,20.26
2022-08-24T05:57:49.980Z,20.40
2022-08-24T05:58:49.801Z,20.36
2022-08-24T05:59:48.596Z,20.40
2022-08-24T06:00:50.786Z,20.32
2022-08-24T06:01:49.200Z,20.40
2022-08-24T06:02:49.435Z,20.41
2022-08-24T06:03:52.681Z,20.37
2022-08-24T06:04:51.699Z,20.37
2022-08-24T06:05:51.919Z,20.47
2022-08-24T06:06:52.589Z,20.58
2022-08-24T06:07:52.781Z,20.59
2022-08-24T06:08:54.965Z,20.72
2022-08-24T06:09:51.402Z,20.92
2022-08-24T06:10:53.584Z,21.06
2022-08-24T06:11:51.884Z,21.07
2022-08-24T06:12:54.063Z,21.22
2022-08-24T06:13:59.052Z,21.48
2022-08-24T06:14:52.650Z,21.50
2022-08-24T06:16:19.635Z,21.60
2022-08-24T06:16:56.125Z,21.64
2022-08-24T06:17:55.340Z,21.73
2022-08-24T06:18:55.591Z,21.82
2022-08-24T06:19:54.051Z,21.50
2022-08-24T06:20:55.522Z,21.43
2022-08-24T06:21:56.471Z,21.50
2022-08-24T06:22:54.785Z,21.46
2022-08-24T06:23:58.970Z,21.58
2022-08-24T06:24:55.295Z,21.77
2022-08-24T06:25:55.546Z,21.83
2022-08-24T06:26:57.727Z,21.62
2022-08-24T06:27:56.043Z,21.51
2022-08-24T06:28:57.184Z,21.54
2022-08-24T06:29:58.542Z,21.55
2022-08-24T06:30:56.914Z,21.40
2022-08-24T06:31:59.131Z,21.50
2022-08-24T06:32:57.364Z,21.55
2022-08-24T06:33:58.496Z,21.50
2022-08-24T06:34:59.379Z,21.43
2022-08-24T06:35:58.067Z,21.33
2022-08-24T06:36:58.306Z,21.25
2022-08-24T06:37:58.551Z,21.35
2022-08-24T06:39:01.881Z,21.15
2022-08-24T06:40:00.989Z,21.00
2022-08-24T06:41:01.130Z,20.97
2022-08-24T06:41:59.692Z,21.00
2022-08-24T06:42:59.997Z,21.27
2022-08-24T06:44:04.113Z,21.69
2022-08-24T06:45:02.379Z,21.85
2022-08-24T06:46:00.825Z,21.95
2022-08-24T06:47:01.147Z,22.15
2022-08-24T06:48:01.293Z,22.26
2022-08-24T06:49:05.482Z,22.02
2022-08-24T06:50:01.846Z,22.17
2022-08-24T06:51:02.077Z,22.07
2022-08-24T06:52:04.256Z,21.79
2022-08-24T06:53:02.722Z,21.60
2022-08-24T06:54:06.765Z,21.50
2022-08-24T06:55:03.101Z,21.50
2022-08-24T06:56:03.381Z,21.73
2022-08-24T06:57:05.570Z,21.61
2022-08-24T06:58:03.925Z,21.83
2022-08-24T06:59:06.174Z,21.85
2022-08-24T07:00:04.453Z,22.06
2022-08-24T07:01:08.118Z,21.99
2022-08-24T07:02:05.016Z,22.62
2022-08-24T07:03:08.630Z,23.09
2022-08-24T07:04:07.622Z,23.32
2022-08-24T07:05:06.790Z,23.46
2022-08-24T07:06:06.950Z,23.46
2022-08-24T07:07:08.296Z,23.43
2022-08-24T07:08:06.741Z,23.25
2022-08-24T07:09:08.963Z,23.50
2022-08-24T07:10:07.333Z,23.66
2022-08-24T07:11:07.550Z,23.68
2022-08-24T07:12:11.194Z,23.47
2022-08-24T07:13:09.921Z,23.06
2022-08-24T07:14:11.071Z,23.27
2022-08-24T07:15:12.527Z,23.43
2022-08-24T07:16:10.042Z,23.31
2022-08-24T07:17:09.140Z,23.20
2022-08-24T07:18:11.329Z,23.44
2022-08-24T07:19:13.512Z,23.27
2022-08-24T07:20:09.972Z,23.34
2022-08-24T07:21:10.328Z,23.69
2022-08-24T07:22:12.410Z,23.95
2022-08-24T07:23:10.828Z,23.93
2022-08-24T07:24:15.004Z,24.23
2022-08-24T07:25:11.341Z,23.88
2022-08-24T07:26:12.569Z,23.54
2022-08-24T07:27:12.858Z,23.34
2022-08-24T07:28:13.255Z,23.00
2022-08-24T07:29:43.682Z,23.21
2022-08-24T07:30:26.894Z,23.55
2022-08-24T07:31:14.039Z,23.69
2022-08-24T07:32:13.231Z,23.78
2022-08-24T07:33:13.496Z,23.61
2022-08-24T07:34:16.953Z,23.81
2022-08-24T07:35:15.648Z,24.20
2022-08-24T07:36:22.154Z,24.51
2022-08-24T07:37:17.503Z,24.84
2022-08-24T07:38:14.831Z,24.58
2022-08-24T07:39:16.068Z,24.61
2022-08-24T07:40:16.450Z,24.57
2022-08-24T07:42:23.226Z,23.87
2022-08-24T07:43:17.234Z,23.74
2022-08-24T07:44:18.401Z,23.46
2022-08-24T07:45:18.575Z,23.37
2022-08-24T07:46:18.817Z,23.15
2022-08-24T07:48:18.699Z,23.15
2022-08-24T07:49:33.282Z,23.15
2022-08-24T07:50:21.128Z,23.09
2022-08-24T07:51:18.483Z,23.00
2022-08-24T07:52:18.796Z,22.99
2022-08-24T07:53:23.843Z,22.96
2022-08-24T07:54:22.214Z,23.17
2022-08-24T07:55:19.540Z,23.24
2022-08-24T07:56:19.778Z,23.34
2022-08-24T07:57:20.023Z,23.46
2022-08-24T07:58:22.220Z,23.95
2022-08-24T07:59:22.422Z,23.84
2022-08-24T08:00:22.590Z,23.65
2022-08-24T08:01:22.831Z,23.55
2022-08-24T08:02:22.977Z,23.48
2022-08-24T08:03:21.647Z,23.58
2022-08-24T08:04:23.834Z,23.77
2022-08-24T08:05:25.025Z,24.08
2022-08-24T08:06:22.480Z,23.98
2022-08-24T08:07:24.631Z,23.96
2022-08-24T08:08:24.832Z,24.51
2022-08-24T08:09:23.385Z,24.30
2022-08-24T08:10:25.567Z,24.57
2022-08-24T08:11:23.873Z,24.58
2022-08-24T08:12:26.036Z,24.30
2022-08-24T08:13:24.347Z,24.39
2022-08-24T08:14:26.531Z,24.96
2022-08-24T08:15:26.748Z,25.32
2022-08-24T08:16:26.958Z,25.18
2022-08-24T08:17:27.102Z,25.23
2022-08-24T08:18:25.655Z,25.17
2022-08-24T08:19:25.894Z,25.07
2022-08-24T08:20:28.115Z,25.17
2022-08-24T08:21:26.384Z,25.32
2022-08-24T08:22:26.624Z,25.35
2022-08-24T08:23:26.857Z,25.35
2022-08-24T08:24:27.101Z,25.46
2022-08-24T08:25:29.277Z,25.55
2022-08-24T08:26:27.594Z,25.48
2022-08-24T08:27:27.828Z,25.90
2022-08-24T08:28:35.562Z,25.99
2022-08-24T08:29:29.299Z,25.88
2022-08-24T08:30:30.492Z,25.83
2022-08-24T08:31:28.958Z,25.85
2022-08-24T08:32:29.172Z,25.78
2022-08-24T08:33:30.365Z,25.83
2022-08-24T08:34:31.723Z,26.02
2022-08-24T08:35:33.215Z,25.81
2022-08-24T08:36:30.290Z,26.05
2022-08-24T08:37:30.547Z,25.96
2022-08-24T08:38:31.652Z,25.93
2022-08-24T08:39:33.001Z,26.26
2022-08-24T08:40:33.207Z,26.37
2022-08-24T08:41:33.379Z,25.90
2022-08-24T08:42:31.935Z,26.19
2022-08-24T08:43:32.963Z,26.28
2022-08-24T08:44:32.513Z,26.18
2022-08-24T08:45:34.694Z,26.41
2022-08-24T08:46:40.097Z,26.58
2022-08-24T08:47:34.322Z,26.51
2022-08-24T08:48:34.529Z,26.05
2022-08-24T08:49:35.938Z,26.47
2022-08-24T08:50:36.137Z,26.92
2022-08-24T08:51:34.572Z,27.10
2022-08-24T08:52:36.768Z,26.97
2022-08-24T08:53:38.929Z,26.93
2022-08-24T08:54:35.393Z,27.05
2022-08-24T08:55:37.572Z,26.80
2022-08-24T08:56:35.876Z,26.51
2022-08-24T08:57:38.145Z,26.63
2022-08-24T08:58:42.122Z,26.80
2022-08-24T08:59:36.728Z,26.99
2022-08-24T09:00:38.916Z,27.12
2022-08-24T09:01:44.164Z,26.99
2022-08-24T09:02:41.994Z,26.88
2022-08-24T09:03:38.722Z,27.18
2022-08-24T09:04:38.189Z,27.48
2022-08-24T09:05:38.437Z,27.71
2022-08-24T09:06:38.690Z,27.64
2022-08-24T09:07:42.350Z,27.35
2022-08-24T09:08:40.034Z,27.22
2022-08-24T09:09:41.394Z,26.89
2022-08-24T09:10:39.743Z,26.62
2022-08-24T09:11:43.888Z,26.25
2022-08-24T09:12:40.214Z,26.26
2022-08-24T09:13:44.450Z,26.29
2022-08-24T09:14:42.680Z,26.34
2022-08-24T09:15:43.088Z,26.43
2022-08-24T09:16:43.348Z,26.68
2022-08-24T09:17:41.632Z,26.99
2022-08-24T09:18:42.920Z,26.89
2022-08-24T09:19:42.225Z,26.31
2022-08-24T09:20:44.395Z,26.10
2022-08-24T09:21:44.602Z,26.03
2022-08-24T09:22:43.014Z,26.18
2022-08-24T09:23:44.232Z,26.63
2022-08-24T09:24:43.531Z,26.74
2022-08-24T09:25:43.776Z,26.80
2022-08-24T09:26:47.422Z,27.05
2022-08-24T09:27:44.255Z,27.07
2022-08-24T09:28:47.413Z,27.07
2022-08-24T09:29:45.695Z,27.58
2022-08-24T09:30:45.387Z,28.08
2022-08-24T09:31:47.314Z,28.60
2022-08-24T09:32:46.693Z,28.75
2022-08-24T09:33:47.513Z,28.39
2022-08-24T09:34:47.273Z,27.86
2022-08-24T09:35:47.425Z,27.89
2022-08-24T09:36:48.750Z,27.70
2022-08-24T09:37:48.001Z,27.58
2022-08-24T09:38:50.472Z,27.92
2022-08-24T09:39:47.733Z,27.80
2022-08-24T09:40:49.844Z,27.18
2022-08-24T09:41:49.154Z,27.05
2022-08-24T09:42:49.576Z,27.18
2022-08-24T09:43:52.738Z,27.73
2022-08-24T09:44:50.148Z,27.54
2022-08-24T09:45:52.231Z,27.58
2022-08-24T09:46:51.658Z,27.75
2022-08-24T09:47:50.884Z,28.29
2022-08-24T09:48:52.322Z,28.49
2022-08-24T09:49:52.514Z,28.27
2022-08-24T09:50:50.947Z,28.00
2022-08-24T09:51:51.212Z,27.87
2022-08-24T09:52:51.448Z,27.33
2022-08-24T09:53:55.852Z,27.36
2022-08-24T09:54:53.577Z,27.18
2022-08-24T09:55:52.259Z,27.07
2022-08-24T09:56:59.819Z,26.83
2022-08-24T09:58:01.844Z,26.93
2022-08-24T09:58:57.003Z,27.20
2022-08-24T09:59:53.332Z,28.00
2022-08-24T10:00:54.550Z,27.68
2022-08-24T10:01:55.761Z,27.15
2022-08-24T10:02:54.243Z,26.96
2022-08-24T10:03:57.605Z,26.74
2022-08-24T10:04:56.692Z,26.55
2022-08-24T10:05:55.161Z,26.53
2022-08-24T10:06:57.240Z,26.26
2022-08-24T10:07:57.425Z,26.36
2022-08-24T10:08:58.601Z,26.88
2022-08-24T10:09:56.296Z,27.25
2022-08-24T10:10:58.477Z,26.93
2022-08-24T10:11:58.666Z,26.80
2022-08-24T10:12:57.496Z,26.75
2022-08-24T10:14:00.420Z,26.71
2022-08-24T10:14:59.547Z,26.63
2022-08-24T10:15:59.736Z,26.53
2022-08-24T10:16:59.896Z,26.55
2022-08-24T10:18:00.595Z,26.75
2022-08-24T10:19:02.760Z,27.36
2022-08-24T10:19:59.218Z,27.73
2022-08-24T10:21:01.409Z,27.48
2022-08-24T10:21:59.723Z,27.64
2022-08-24T10:23:01.929Z,27.87
2022-08-24T10:24:01.276Z,27.60
2022-08-24T10:25:00.559Z,27.37
2022-08-24T10:26:02.763Z,26.95
2022-08-24T10:27:02.955Z,26.66
2022-08-24T10:28:03.395Z,26.78
2022-08-24T10:29:04.614Z,27.27
2022-08-24T10:30:01.918Z,27.67
2022-08-24T10:31:04.116Z,27.90
2022-08-24T10:32:04.412Z,27.80
2022-08-24T10:33:04.523Z,27.39
2022-08-24T10:34:05.925Z,27.48
2022-08-24T10:35:05.805Z,27.93
2022-08-24T10:36:05.100Z,28.22
2022-08-24T10:37:07.767Z,28.63
2022-08-24T10:38:04.265Z,29.16
2022-08-24T10:39:07.778Z,29.16
2022-08-24T10:40:06.277Z,28.85
2022-08-24T10:41:05.889Z,29.19
2022-08-24T10:42:07.057Z,29.38
2022-08-24T10:43:05.439Z,29.35
2022-08-24T10:44:09.609Z,28.89
2022-08-24T10:45:07.966Z,28.62
2022-08-24T10:46:06.348Z,28.49
2022-08-24T10:47:08.551Z,28.76
2022-08-24T10:48:06.873Z,28.98
2022-08-24T10:49:10.121Z,29.04
2022-08-24T10:50:09.281Z,29.14
2022-08-24T10:51:07.708Z,29.08
2022-08-24T10:52:09.903Z,28.66
2022-08-24T10:53:08.209Z,28.49
2022-08-24T10:54:09.382Z,28.42
2022-08-24T10:55:10.729Z,28.45
2022-08-24T10:56:09.059Z,28.51
2022-08-24T10:57:12.253Z,28.63
2022-08-24T10:58:10.531Z,28.89
2022-08-24T10:59:13.695Z,29.13
2022-08-24T11:00:12.035Z,29.39
2022-08-24T11:01:11.587Z,29.34
2022-08-24T11:02:12.924Z,29.47
2022-08-24T11:03:12.951Z,29.41
2022-08-24T11:04:14.307Z,29.20
2022-08-24T11:05:11.635Z,29.24
2022-08-24T11:06:11.911Z,29.42
2022-08-24T11:07:12.153Z,29.44
2022-08-24T11:08:14.359Z,29.59
2022-08-24T11:09:19.767Z,29.39
2022-08-24T11:10:14.748Z,29.41
2022-08-24T11:11:13.308Z,29.32
2022-08-24T11:12:13.546Z,29.16
2022-08-24T11:13:13.785Z,29.20
2022-08-24T11:14:17.971Z,29.20
2022-08-24T11:15:17.358Z,28.76
2022-08-24T11:16:14.579Z,29.22
2022-08-24T11:17:18.226Z,29.42
2022-08-24T11:18:15.247Z,29.78
2022-08-24T11:19:17.476Z,29.68
2022-08-24T11:20:15.808Z,29.91
2022-08-24T11:21:17.992Z,30.32
2022-08-24T11:22:16.311Z,29.91
2022-08-24T11:23:16.561Z,30.08
2022-08-24T11:24:17.762Z,29.73
2022-08-24T11:25:17.082Z,29.32
2022-08-24T11:26:19.271Z,29.66
2022-08-24T11:27:17.591Z,29.66
2022-08-24T11:28:17.865Z,29.86
2022-08-24T11:29:21.127Z,30.31
2022-08-24T11:30:18.345Z,30.24
2022-08-24T11:31:20.623Z,30.34
2022-08-24T11:32:20.712Z,29.95
2022-08-24T11:33:19.295Z,29.82
2022-08-24T11:34:22.441Z,29.84
2022-08-24T11:35:19.644Z,29.38
2022-08-24T11:36:21.142Z,29.36
2022-08-24T11:37:24.426Z,29.44
2022-08-24T11:38:22.320Z,29.32
2022-08-24T11:39:23.754Z,29.49
2022-08-24T11:40:21.153Z,29.71
2022-08-24T11:41:21.370Z,29.73
2022-08-24T11:42:29.100Z,29.76
2022-08-24T11:43:24.795Z,29.75
2022-08-24T11:44:25.060Z,30.21
2022-08-24T11:45:23.170Z,30.06
2022-08-24T11:46:24.674Z,30.21
2022-08-24T11:47:23.008Z,30.70
2022-08-24T11:48:29.588Z,30.32
2022-08-24T11:49:27.367Z,30.00
2022-08-24T11:50:25.605Z,29.82
2022-08-24T11:51:25.795Z,29.81
2022-08-24T11:52:25.324Z,29.94
2022-08-24T11:53:26.671Z,29.78
2022-08-24T11:54:25.892Z,29.44
2022-08-24T11:55:26.050Z,29.60
2022-08-24T11:56:27.445Z,29.68
2022-08-24T11:57:26.625Z,29.78
2022-08-24T11:58:27.053Z,29.94
2022-08-24T11:59:27.200Z,30.08
2022-08-24T12:00:26.626Z,30.24
2022-08-24T12:01:28.808Z,30.31
2022-08-24T12:02:27.229Z,29.95
2022-08-24T12:03:28.957Z,29.81
2022-08-24T12:04:27.768Z,29.87
2022-08-24T12:05:27.998Z,29.98
2022-08-24T12:06:32.313Z,30.46
2022-08-24T12:07:28.485Z,30.78
2022-08-24T12:08:30.749Z,30.78
2022-08-24T12:09:30.973Z,30.55
2022-08-24T12:10:32.733Z,30.85
2022-08-24T12:11:31.372Z,31.22
2022-08-24T12:12:31.558Z,31.24
2022-08-24T12:13:32.091Z,31.25
2022-08-24T12:14:30.418Z,30.91
2022-08-24T12:15:30.661Z,30.72
2022-08-24T12:16:31.949Z,30.53
2022-08-24T12:17:31.252Z,30.68
2022-08-24T12:18:33.483Z,30.75
2022-08-24T12:19:33.765Z,30.72
2022-08-24T12:20:32.143Z,30.66
2022-08-24T12:21:34.332Z,30.50
2022-08-24T12:22:34.525Z,30.59
2022-08-24T12:23:34.935Z,30.96
2022-08-24T12:24:33.290Z,30.81
2022-08-24T12:25:35.436Z,30.81
2022-08-24T12:26:35.624Z,30.62
2022-08-24T12:27:35.812Z,30.28
2022-08-24T12:28:36.931Z,30.68
2022-08-24T12:29:34.806Z,30.75
2022-08-24T12:30:37.002Z,30.65
2022-08-24T12:31:37.237Z,30.55
2022-08-24T12:32:37.368Z,30.66
2022-08-24T12:33:38.551Z,31.07
2022-08-24T12:34:36.098Z,31.27
2022-08-24T12:35:36.337Z,30.83
2022-08-24T12:36:36.584Z,30.47
2022-08-24T12:37:38.778Z,30.13
2022-08-24T12:38:37.097Z,30.00
2022-08-24T12:39:37.338Z,30.19
2022-08-24T12:40:37.587Z,30.30
2022-08-24T12:41:37.842Z,30.21
2022-08-24T12:42:40.036Z,30.44
2022-08-24T12:43:38.337Z,30.53
2022-08-24T12:44:38.582Z,30.66
2022-08-24T12:45:38.835Z,30.46
2022-08-24T12:46:41.046Z,30.50
2022-08-24T12:47:41.207Z,30.34
2022-08-24T12:48:41.393Z,30.31
2022-08-24T12:49:39.954Z,29.98
2022-08-24T12:50:40.199Z,30.28
2022-08-24T12:51:40.443Z,30.46
2022-08-24T12:52:42.635Z,30.51
2022-08-24T12:53:42.836Z,30.53
2022-08-24T12:54:41.272Z,30.09
2022-08-24T12:55:41.516Z,29.97
2022-08-24T12:56:41.762Z,30.46
2022-08-24T12:57:59.247Z,30.81